sensor_id;sensor_type;location;lat;lon;timestamp;P1;durP1;ratioP1;P2;durP2;ratioP2
52866;SDS011;38739;53.324;6.862;2024-03-25T00:01:32;24.45;;;3.28;;
52866;SDS011;38739;53.324;6.862;2024-03-25T00:03:58;25.50;;;3.60;;
52866;SDS011;38739;53.324;6.862;2024-03-25T00:06:23;24.10;;;3.10;;
52866;SDS011;38739;53.324;6.862;2024-03-25T00:08:49;21.00;;;3.40;;
52866;SDS011;38739;53.324;6.862;2024-03-25T00:11:15;19.45;;;2.88;;
52866;SDS011;38739;53.324;6.862;2024-03-25T00:13:40;22.25;;;3.20;;
52866;SDS011;38739;53.324;6.862;2024-03-25T00:16:06;23.25;;;3.30;;
52866;SDS011;38739;53.324;6.862;2024-03-25T00:18:32;23.52;;;3.30;;
52866;SDS011;38739;53.324;6.862;2024-03-25T00:20:58;23.27;;;3.10;;
52866;SDS011;38739;53.324;6.862;2024-03-25T00:23:24;17.75;;;2.85;;
52866;SDS011;38739;53.324;6.862;2024-03-25T00:25:50;19.15;;;3.03;;
52866;SDS011;38739;53.324;6.862;2024-03-25T00:28:16;17.35;;;2.58;;
52866;SDS011;38739;53.324;6.862;2024-03-25T00:30:44;16.02;;;2.92;;
52866;SDS011;38739;53.324;6.862;2024-03-25T00:33:10;20.67;;;2.70;;
52866;SDS011;38739;53.324;6.862;2024-03-25T00:35:36;13.45;;;2.80;;
52866;SDS011;38739;53.324;6.862;2024-03-25T00:38:02;20.75;;;2.78;;
52866;SDS011;38739;53.324;6.862;2024-03-25T00:40:29;19.02;;;2.78;;
52866;SDS011;38739;53.324;6.862;2024-03-25T00:42:54;17.02;;;3.10;;
52866;SDS011;38739;53.324;6.862;2024-03-25T00:45:20;21.00;;;3.17;;
52866;SDS011;38739;53.324;6.862;2024-03-25T00:47:46;23.70;;;3.05;;
52866;SDS011;38739;53.324;6.862;2024-03-25T00:50:12;20.25;;;3.53;;
52866;SDS011;38739;53.324;6.862;2024-03-25T00:52:37;21.65;;;3.05;;
52866;SDS011;38739;53.324;6.862;2024-03-25T00:55:03;21.00;;;3.60;;
52866;SDS011;38739;53.324;6.862;2024-03-25T00:57:29;17.05;;;3.22;;
52866;SDS011;38739;53.324;6.862;2024-03-25T00:59:55;18.83;;;3.47;;
52866;SDS011;38739;53.324;6.862;2024-03-25T01:02:20;22.08;;;3.30;;
52866;SDS011;38739;53.324;6.862;2024-03-25T01:04:46;23.08;;;3.53;;
52866;SDS011;38739;53.324;6.862;2024-03-25T01:07:12;25.13;;;3.80;;
52866;SDS011;38739;53.324;6.862;2024-03-25T01:09:38;17.30;;;3.25;;
52866;SDS011;38739;53.324;6.862;2024-03-25T01:12:04;32.08;;;4.00;;
52866;SDS011;38739;53.324;6.862;2024-03-25T01:14:30;23.15;;;3.45;;
52866;SDS011;38739;53.324;6.862;2024-03-25T01:16:55;16.67;;;3.63;;
52866;SDS011;38739;53.324;6.862;2024-03-25T01:19:21;20.80;;;3.55;;
52866;SDS011;38739;53.324;6.862;2024-03-25T01:21:47;31.75;;;3.80;;
52866;SDS011;38739;53.324;6.862;2024-03-25T01:24:14;22.17;;;3.80;;
52866;SDS011;38739;53.324;6.862;2024-03-25T01:26:39;20.13;;;3.22;;
52866;SDS011;38739;53.324;6.862;2024-03-25T01:29:05;25.52;;;3.70;;
52866;SDS011;38739;53.324;6.862;2024-03-25T01:31:31;15.82;;;3.10;;
52866;SDS011;38739;53.324;6.862;2024-03-25T01:33:57;18.08;;;3.47;;
52866;SDS011;38739;53.324;6.862;2024-03-25T01:36:22;20.85;;;2.97;;
52866;SDS011;38739;53.324;6.862;2024-03-25T01:38:48;15.63;;;2.80;;
52866;SDS011;38739;53.324;6.862;2024-03-25T01:41:14;18.00;;;3.10;;
52866;SDS011;38739;53.324;6.862;2024-03-25T01:43:48;14.27;;;2.88;;
52866;SDS011;38739;53.324;6.862;2024-03-25T01:46:14;17.90;;;2.95;;
52866;SDS011;38739;53.324;6.862;2024-03-25T01:48:41;9.65;;;2.55;;
52866;SDS011;38739;53.324;6.862;2024-03-25T01:51:08;15.43;;;2.70;;
52866;SDS011;38739;53.324;6.862;2024-03-25T01:53:34;17.17;;;2.65;;
52866;SDS011;38739;53.324;6.862;2024-03-25T01:56:00;14.32;;;2.60;;
52866;SDS011;38739;53.324;6.862;2024-03-25T01:58:27;14.27;;;2.58;;
52866;SDS011;38739;53.324;6.862;2024-03-25T02:00:53;15.50;;;3.10;;
52866;SDS011;38739;53.324;6.862;2024-03-25T02:03:20;14.88;;;2.65;;
52866;SDS011;38739;53.324;6.862;2024-03-25T02:05:47;16.85;;;2.75;;
52866;SDS011;38739;53.324;6.862;2024-03-25T02:08:15;16.55;;;2.83;;
52866;SDS011;38739;53.324;6.862;2024-03-25T02:10:44;14.30;;;2.67;;
52866;SDS011;38739;53.324;6.862;2024-03-25T02:13:10;11.77;;;2.40;;
52866;SDS011;38739;53.324;6.862;2024-03-25T02:15:36;14.32;;;2.70;;
52866;SDS011;38739;53.324;6.862;2024-03-25T02:18:02;17.88;;;3.13;;
52866;SDS011;38739;53.324;6.862;2024-03-25T02:20:28;16.15;;;2.65;;
52866;SDS011;38739;53.324;6.862;2024-03-25T02:22:53;14.20;;;2.70;;
52866;SDS011;38739;53.324;6.862;2024-03-25T02:25:20;15.90;;;2.63;;
52866;SDS011;38739;53.324;6.862;2024-03-25T02:27:47;15.80;;;2.83;;
52866;SDS011;38739;53.324;6.862;2024-03-25T02:30:13;19.15;;;3.10;;
52866;SDS011;38739;53.324;6.862;2024-03-25T02:32:39;18.88;;;2.65;;
52866;SDS011;38739;53.324;6.862;2024-03-25T02:35:10;27.52;;;3.90;;
52866;SDS011;38739;53.324;6.862;2024-03-25T02:37:40;20.83;;;3.70;;
52866;SDS011;38739;53.324;6.862;2024-03-25T02:40:06;26.13;;;4.00;;
52866;SDS011;38739;53.324;6.862;2024-03-25T02:42:36;19.80;;;3.60;;
52866;SDS011;38739;53.324;6.862;2024-03-25T02:45:05;22.58;;;3.75;;
52866;SDS011;38739;53.324;6.862;2024-03-25T02:47:37;22.52;;;3.10;;
52866;SDS011;38739;53.324;6.862;2024-03-25T02:50:03;18.42;;;3.28;;
52866;SDS011;38739;53.324;6.862;2024-03-25T02:52:29;21.20;;;2.92;;
52866;SDS011;38739;53.324;6.862;2024-03-25T02:54:54;23.05;;;3.30;;
52866;SDS011;38739;53.324;6.862;2024-03-25T02:57:20;19.70;;;3.33;;
52866;SDS011;38739;53.324;6.862;2024-03-25T02:59:46;20.95;;;2.90;;
52866;SDS011;38739;53.324;6.862;2024-03-25T03:02:12;20.10;;;2.63;;
52866;SDS011;38739;53.324;6.862;2024-03-25T03:04:38;13.27;;;2.50;;
52866;SDS011;38739;53.324;6.862;2024-03-25T03:07:04;17.13;;;2.45;;
52866;SDS011;38739;53.324;6.862;2024-03-25T03:09:29;14.10;;;2.17;;
52866;SDS011;38739;53.324;6.862;2024-03-25T03:11:55;14.55;;;2.30;;
52866;SDS011;38739;53.324;6.862;2024-03-25T03:14:21;12.77;;;2.08;;
52866;SDS011;38739;53.324;6.862;2024-03-25T03:16:47;17.13;;;2.80;;
52866;SDS011;38739;53.324;6.862;2024-03-25T03:19:13;13.38;;;2.03;;
52866;SDS011;38739;53.324;6.862;2024-03-25T03:21:38;20.77;;;2.55;;
52866;SDS011;38739;53.324;6.862;2024-03-25T03:24:04;11.57;;;2.22;;
52866;SDS011;38739;53.324;6.862;2024-03-25T03:26:30;12.05;;;2.13;;
52866;SDS011;38739;53.324;6.862;2024-03-25T03:28:57;12.50;;;2.20;;
52866;SDS011;38739;53.324;6.862;2024-03-25T03:31:23;21.42;;;2.35;;
52866;SDS011;38739;53.324;6.862;2024-03-25T03:33:50;14.95;;;2.28;;
52866;SDS011;38739;53.324;6.862;2024-03-25T03:36:16;15.52;;;2.20;;
52866;SDS011;38739;53.324;6.862;2024-03-25T03:38:43;14.57;;;2.40;;
52866;SDS011;38739;53.324;6.862;2024-03-25T03:41:09;17.88;;;2.60;;
52866;SDS011;38739;53.324;6.862;2024-03-25T03:43:35;14.60;;;2.13;;
52866;SDS011;38739;53.324;6.862;2024-03-25T03:46:01;13.02;;;2.45;;
52866;SDS011;38739;53.324;6.862;2024-03-25T03:48:27;13.82;;;2.05;;
52866;SDS011;38739;53.324;6.862;2024-03-25T03:50:53;16.70;;;3.03;;
52866;SDS011;38739;53.324;6.862;2024-03-25T03:53:19;13.52;;;2.03;;
52866;SDS011;38739;53.324;6.862;2024-03-25T03:55:57;19.63;;;2.72;;
52866;SDS011;38739;53.324;6.862;2024-03-25T03:58:27;14.10;;;2.28;;
52866;SDS011;38739;53.324;6.862;2024-03-25T04:00:53;13.35;;;2.10;;
52866;SDS011;38739;53.324;6.862;2024-03-25T04:03:19;13.70;;;2.20;;
52866;SDS011;38739;53.324;6.862;2024-03-25T04:05:44;15.32;;;2.10;;
52866;SDS011;38739;53.324;6.862;2024-03-25T04:08:10;19.67;;;3.25;;
52866;SDS011;38739;53.324;6.862;2024-03-25T04:10:36;19.25;;;2.45;;
52866;SDS011;38739;53.324;6.862;2024-03-25T04:13:06;17.10;;;2.60;;
52866;SDS011;38739;53.324;6.862;2024-03-25T04:15:36;15.15;;;2.15;;
52866;SDS011;38739;53.324;6.862;2024-03-25T04:18:05;13.10;;;2.17;;
52866;SDS011;38739;53.324;6.862;2024-03-25T04:20:38;17.27;;;2.72;;
52866;SDS011;38739;53.324;6.862;2024-03-25T04:23:05;11.77;;;2.00;;
52866;SDS011;38739;53.324;6.862;2024-03-25T04:25:34;18.52;;;2.47;;
52866;SDS011;38739;53.324;6.862;2024-03-25T04:28:02;14.27;;;2.38;;
52866;SDS011;38739;53.324;6.862;2024-03-25T04:30:29;13.18;;;2.50;;
52866;SDS011;38739;53.324;6.862;2024-03-25T04:32:54;21.25;;;2.47;;
52866;SDS011;38739;53.324;6.862;2024-03-25T04:35:20;14.80;;;2.30;;
52866;SDS011;38739;53.324;6.862;2024-03-25T04:37:46;14.15;;;2.45;;
52866;SDS011;38739;53.324;6.862;2024-03-25T04:40:13;18.52;;;2.50;;
52866;SDS011;38739;53.324;6.862;2024-03-25T04:42:39;15.63;;;2.40;;
52866;SDS011;38739;53.324;6.862;2024-03-25T04:45:05;16.92;;;2.60;;
52866;SDS011;38739;53.324;6.862;2024-03-25T04:47:31;18.00;;;2.75;;
52866;SDS011;38739;53.324;6.862;2024-03-25T04:49:57;16.10;;;2.80;;
52866;SDS011;38739;53.324;6.862;2024-03-25T04:52:23;19.35;;;2.42;;
52866;SDS011;38739;53.324;6.862;2024-03-25T04:54:49;10.65;;;2.28;;
52866;SDS011;38739;53.324;6.862;2024-03-25T04:57:15;15.45;;;2.25;;
52866;SDS011;38739;53.324;6.862;2024-03-25T04:59:41;18.55;;;2.42;;
52866;SDS011;38739;53.324;6.862;2024-03-25T05:02:06;17.30;;;2.90;;
52866;SDS011;38739;53.324;6.862;2024-03-25T05:04:33;16.65;;;2.65;;
52866;SDS011;38739;53.324;6.862;2024-03-25T05:06:58;14.80;;;2.67;;
52866;SDS011;38739;53.324;6.862;2024-03-25T05:09:24;14.70;;;2.47;;
52866;SDS011;38739;53.324;6.862;2024-03-25T05:11:50;15.32;;;2.60;;
52866;SDS011;38739;53.324;6.862;2024-03-25T05:14:15;22.75;;;2.78;;
52866;SDS011;38739;53.324;6.862;2024-03-25T05:16:41;13.70;;;2.28;;
52866;SDS011;38739;53.324;6.862;2024-03-25T05:19:07;11.27;;;2.47;;
52866;SDS011;38739;53.324;6.862;2024-03-25T05:21:32;13.73;;;2.65;;
52866;SDS011;38739;53.324;6.862;2024-03-25T05:23:58;14.13;;;2.40;;
52866;SDS011;38739;53.324;6.862;2024-03-25T05:26:24;12.52;;;2.30;;
52866;SDS011;38739;53.324;6.862;2024-03-25T05:28:54;12.13;;;2.85;;
52866;SDS011;38739;53.324;6.862;2024-03-25T05:31:20;11.07;;;2.20;;
52866;SDS011;38739;53.324;6.862;2024-03-25T05:33:46;10.02;;;2.08;;
52866;SDS011;38739;53.324;6.862;2024-03-25T05:36:12;15.07;;;2.45;;
52866;SDS011;38739;53.324;6.862;2024-03-25T05:38:38;17.23;;;2.40;;
52866;SDS011;38739;53.324;6.862;2024-03-25T05:41:04;11.25;;;2.47;;
52866;SDS011;38739;53.324;6.862;2024-03-25T05:43:30;12.20;;;2.45;;
52866;SDS011;38739;53.324;6.862;2024-03-25T05:45:56;10.75;;;2.10;;
52866;SDS011;38739;53.324;6.862;2024-03-25T05:48:24;9.90;;;2.00;;
52866;SDS011;38739;53.324;6.862;2024-03-25T05:51:00;15.10;;;2.60;;
52866;SDS011;38739;53.324;6.862;2024-03-25T05:53:33;12.10;;;2.55;;
52866;SDS011;38739;53.324;6.862;2024-03-25T05:55:59;12.77;;;2.72;;
52866;SDS011;38739;53.324;6.862;2024-03-25T05:58:25;15.30;;;2.90;;
52866;SDS011;38739;53.324;6.862;2024-03-25T06:00:51;15.88;;;2.50;;
52866;SDS011;38739;53.324;6.862;2024-03-25T06:03:18;13.73;;;2.35;;
52866;SDS011;38739;53.324;6.862;2024-03-25T06:05:44;14.27;;;1.90;;
52866;SDS011;38739;53.324;6.862;2024-03-25T06:08:11;11.90;;;2.30;;
52866;SDS011;38739;53.324;6.862;2024-03-25T06:11:03;13.75;;;2.33;;
52866;SDS011;38739;53.324;6.862;2024-03-25T06:13:29;19.80;;;2.50;;
52866;SDS011;38739;53.324;6.862;2024-03-25T06:15:54;13.65;;;2.47;;
52866;SDS011;38739;53.324;6.862;2024-03-25T06:18:20;14.15;;;2.65;;
52866;SDS011;38739;53.324;6.862;2024-03-25T06:20:46;14.57;;;3.10;;
52866;SDS011;38739;53.324;6.862;2024-03-25T06:23:21;13.57;;;2.58;;
52866;SDS011;38739;53.324;6.862;2024-03-25T06:25:51;18.92;;;3.17;;
52866;SDS011;38739;53.324;6.862;2024-03-25T06:28:18;15.18;;;2.95;;
52866;SDS011;38739;53.324;6.862;2024-03-25T06:30:47;15.73;;;2.67;;
52866;SDS011;38739;53.324;6.862;2024-03-25T06:33:32;13.85;;;2.65;;
52866;SDS011;38739;53.324;6.862;2024-03-25T06:36:17;18.10;;;3.20;;
52866;SDS011;38739;53.324;6.862;2024-03-25T06:38:43;18.20;;;3.55;;
52866;SDS011;38739;53.324;6.862;2024-03-25T06:41:09;22.92;;;3.03;;
52866;SDS011;38739;53.324;6.862;2024-03-25T06:43:35;17.45;;;3.28;;
52866;SDS011;38739;53.324;6.862;2024-03-25T06:46:03;17.30;;;3.30;;
52866;SDS011;38739;53.324;6.862;2024-03-25T06:48:29;18.90;;;3.58;;
52866;SDS011;38739;53.324;6.862;2024-03-25T06:50:58;20.27;;;3.60;;
52866;SDS011;38739;53.324;6.862;2024-03-25T06:53:24;19.65;;;3.13;;
52866;SDS011;38739;53.324;6.862;2024-03-25T06:55:54;20.08;;;2.90;;
52866;SDS011;38739;53.324;6.862;2024-03-25T06:58:21;14.32;;;3.72;;
52866;SDS011;38739;53.324;6.862;2024-03-25T07:00:48;22.95;;;3.55;;
52866;SDS011;38739;53.324;6.862;2024-03-25T07:03:17;16.65;;;3.03;;
52866;SDS011;38739;53.324;6.862;2024-03-25T07:05:47;17.13;;;2.80;;
52866;SDS011;38739;53.324;6.862;2024-03-25T07:08:14;15.38;;;2.92;;
52866;SDS011;38739;53.324;6.862;2024-03-25T07:10:43;17.80;;;3.30;;
52866;SDS011;38739;53.324;6.862;2024-03-25T07:13:09;17.73;;;2.80;;
52866;SDS011;38739;53.324;6.862;2024-03-25T07:15:35;15.35;;;2.60;;
52866;SDS011;38739;53.324;6.862;2024-03-25T07:18:01;12.45;;;2.53;;
52866;SDS011;38739;53.324;6.862;2024-03-25T07:20:27;12.88;;;2.35;;
52866;SDS011;38739;53.324;6.862;2024-03-25T07:22:53;14.30;;;3.10;;
52866;SDS011;38739;53.324;6.862;2024-03-25T07:25:20;15.77;;;2.80;;
52866;SDS011;38739;53.324;6.862;2024-03-25T07:27:46;13.77;;;2.28;;
52866;SDS011;38739;53.324;6.862;2024-03-25T07:30:12;15.90;;;2.90;;
52866;SDS011;38739;53.324;6.862;2024-03-25T07:32:38;12.50;;;2.25;;
52866;SDS011;38739;53.324;6.862;2024-03-25T07:35:04;13.55;;;2.30;;
52866;SDS011;38739;53.324;6.862;2024-03-25T07:37:30;15.05;;;2.65;;
52866;SDS011;38739;53.324;6.862;2024-03-25T07:39:56;18.95;;;2.63;;
52866;SDS011;38739;53.324;6.862;2024-03-25T07:42:22;12.55;;;2.17;;
52866;SDS011;38739;53.324;6.862;2024-03-25T07:44:47;14.75;;;2.78;;
52866;SDS011;38739;53.324;6.862;2024-03-25T07:47:13;12.18;;;2.42;;
52866;SDS011;38739;53.324;6.862;2024-03-25T07:49:38;13.30;;;2.50;;
52866;SDS011;38739;53.324;6.862;2024-03-25T07:52:05;12.48;;;2.63;;
52866;SDS011;38739;53.324;6.862;2024-03-25T07:54:31;10.77;;;2.20;;
52866;SDS011;38739;53.324;6.862;2024-03-25T07:56:56;13.35;;;2.35;;
52866;SDS011;38739;53.324;6.862;2024-03-25T07:59:22;16.42;;;2.88;;
52866;SDS011;38739;53.324;6.862;2024-03-25T08:01:48;13.00;;;2.20;;
52866;SDS011;38739;53.324;6.862;2024-03-25T08:04:14;12.23;;;2.40;;
52866;SDS011;38739;53.324;6.862;2024-03-25T08:06:39;11.93;;;2.30;;
52866;SDS011;38739;53.324;6.862;2024-03-25T08:09:05;16.20;;;2.30;;
52866;SDS011;38739;53.324;6.862;2024-03-25T08:11:31;14.38;;;2.40;;
52866;SDS011;38739;53.324;6.862;2024-03-25T08:13:57;14.27;;;2.67;;
52866;SDS011;38739;53.324;6.862;2024-03-25T08:16:23;13.30;;;2.30;;
52866;SDS011;38739;53.324;6.862;2024-03-25T08:18:49;15.93;;;2.47;;
52866;SDS011;38739;53.324;6.862;2024-03-25T08:21:15;13.10;;;2.00;;
52866;SDS011;38739;53.324;6.862;2024-03-25T08:23:44;12.73;;;2.08;;
52866;SDS011;38739;53.324;6.862;2024-03-25T08:26:10;12.30;;;2.00;;
52866;SDS011;38739;53.324;6.862;2024-03-25T08:28:36;10.63;;;1.70;;
52866;SDS011;38739;53.324;6.862;2024-03-25T08:31:03;14.50;;;1.77;;
52866;SDS011;38739;53.324;6.862;2024-03-25T08:33:29;14.75;;;1.92;;
52866;SDS011;38739;53.324;6.862;2024-03-25T08:35:54;12.38;;;2.03;;
52866;SDS011;38739;53.324;6.862;2024-03-25T08:38:20;9.63;;;1.83;;
52866;SDS011;38739;53.324;6.862;2024-03-25T08:40:46;16.50;;;2.53;;
52866;SDS011;38739;53.324;6.862;2024-03-25T08:43:12;13.43;;;2.33;;
52866;SDS011;38739;53.324;6.862;2024-03-25T08:45:38;12.00;;;2.25;;
52866;SDS011;38739;53.324;6.862;2024-03-25T08:48:03;14.57;;;2.50;;
52866;SDS011;38739;53.324;6.862;2024-03-25T08:50:29;11.48;;;2.08;;
52866;SDS011;38739;53.324;6.862;2024-03-25T08:52:55;14.30;;;1.92;;
52866;SDS011;38739;53.324;6.862;2024-03-25T08:55:21;12.13;;;1.88;;
52866;SDS011;38739;53.324;6.862;2024-03-25T08:57:46;11.30;;;2.10;;
52866;SDS011;38739;53.324;6.862;2024-03-25T09:00:12;9.73;;;1.50;;
52866;SDS011;38739;53.324;6.862;2024-03-25T09:02:39;8.05;;;1.92;;
52866;SDS011;38739;53.324;6.862;2024-03-25T09:05:04;7.65;;;1.48;;
52866;SDS011;38739;53.324;6.862;2024-03-25T09:07:31;4.80;;;1.13;;
52866;SDS011;38739;53.324;6.862;2024-03-25T09:09:57;7.28;;;1.48;;
52866;SDS011;38739;53.324;6.862;2024-03-25T09:12:41;10.77;;;1.58;;
52866;SDS011;38739;53.324;6.862;2024-03-25T09:15:07;6.80;;;1.30;;
52866;SDS011;38739;53.324;6.862;2024-03-25T09:17:34;8.05;;;1.50;;
52866;SDS011;38739;53.324;6.862;2024-03-25T09:20:01;11.82;;;2.03;;
52866;SDS011;38739;53.324;6.862;2024-03-25T09:22:29;10.15;;;1.40;;
52866;SDS011;38739;53.324;6.862;2024-03-25T09:24:54;9.05;;;2.03;;
52866;SDS011;38739;53.324;6.862;2024-03-25T09:27:20;9.25;;;1.38;;
52866;SDS011;38739;53.324;6.862;2024-03-25T09:29:49;8.65;;;1.65;;
52866;SDS011;38739;53.324;6.862;2024-03-25T09:32:15;9.80;;;1.45;;
52866;SDS011;38739;53.324;6.862;2024-03-25T09:34:40;7.22;;;1.33;;
52866;SDS011;38739;53.324;6.862;2024-03-25T09:37:06;8.13;;;1.60;;
52866;SDS011;38739;53.324;6.862;2024-03-25T09:39:32;6.22;;;1.60;;
52866;SDS011;38739;53.324;6.862;2024-03-25T09:41:57;8.77;;;1.25;;
52866;SDS011;38739;53.324;6.862;2024-03-25T09:44:26;7.88;;;1.80;;
52866;SDS011;38739;53.324;6.862;2024-03-25T09:46:57;9.18;;;1.40;;
52866;SDS011;38739;53.324;6.862;2024-03-25T09:49:22;7.78;;;1.27;;
52866;SDS011;38739;53.324;6.862;2024-03-25T09:51:50;7.85;;;1.30;;
52866;SDS011;38739;53.324;6.862;2024-03-25T09:54:16;5.35;;;1.20;;
52866;SDS011;38739;53.324;6.862;2024-03-25T09:56:41;6.32;;;1.25;;
52866;SDS011;38739;53.324;6.862;2024-03-25T09:59:07;7.90;;;1.40;;
52866;SDS011;38739;53.324;6.862;2024-03-25T10:01:33;5.25;;;1.30;;
52866;SDS011;38739;53.324;6.862;2024-03-25T10:03:59;7.80;;;1.33;;
52866;SDS011;38739;53.324;6.862;2024-03-25T10:06:25;13.02;;;1.60;;
52866;SDS011;38739;53.324;6.862;2024-03-25T10:08:53;8.10;;;1.63;;
52866;SDS011;38739;53.324;6.862;2024-03-25T10:11:19;10.27;;;1.65;;
52866;SDS011;38739;53.324;6.862;2024-03-25T10:13:45;9.10;;;1.40;;
52866;SDS011;38739;53.324;6.862;2024-03-25T10:16:10;10.88;;;1.80;;
52866;SDS011;38739;53.324;6.862;2024-03-25T10:18:36;8.60;;;1.58;;
52866;SDS011;38739;53.324;6.862;2024-03-25T10:21:02;7.53;;;1.20;;
52866;SDS011;38739;53.324;6.862;2024-03-25T10:23:28;7.00;;;1.40;;
52866;SDS011;38739;53.324;6.862;2024-03-25T10:25:54;8.40;;;1.60;;
52866;SDS011;38739;53.324;6.862;2024-03-25T10:28:20;7.00;;;1.30;;
52866;SDS011;38739;53.324;6.862;2024-03-25T10:30:46;7.93;;;1.50;;
52866;SDS011;38739;53.324;6.862;2024-03-25T10:33:12;8.18;;;1.30;;
52866;SDS011;38739;53.324;6.862;2024-03-25T10:35:39;7.70;;;1.42;;
52866;SDS011;38739;53.324;6.862;2024-03-25T10:40:33;7.30;;;1.45;;
52866;SDS011;38739;53.324;6.862;2024-03-25T10:43:07;4.07;;;0.97;;
52866;SDS011;38739;53.324;6.862;2024-03-25T10:45:46;6.88;;;1.20;;
52866;SDS011;38739;53.324;6.862;2024-03-25T10:48:19;6.80;;;1.77;;
52866;SDS011;38739;53.324;6.862;2024-03-25T10:50:56;4.65;;;0.90;;
52866;SDS011;38739;53.324;6.862;2024-03-25T10:53:23;6.00;;;1.15;;
52866;SDS011;38739;53.324;6.862;2024-03-25T10:55:50;3.90;;;1.10;;
52866;SDS011;38739;53.324;6.862;2024-03-25T10:58:18;6.50;;;1.25;;
52866;SDS011;38739;53.324;6.862;2024-03-25T11:00:48;5.18;;;1.17;;
52866;SDS011;38739;53.324;6.862;2024-03-25T11:03:15;2.83;;;0.82;;
52866;SDS011;38739;53.324;6.862;2024-03-25T11:05:41;5.05;;;0.85;;
52866;SDS011;38739;53.324;6.862;2024-03-25T11:08:14;5.65;;;1.10;;
52866;SDS011;38739;53.324;6.862;2024-03-25T11:10:41;5.93;;;1.05;;
52866;SDS011;38739;53.324;6.862;2024-03-25T11:13:12;5.22;;;1.08;;
52866;SDS011;38739;53.324;6.862;2024-03-25T11:15:48;8.05;;;1.23;;
52866;SDS011;38739;53.324;6.862;2024-03-25T11:18:14;5.32;;;1.17;;
52866;SDS011;38739;53.324;6.862;2024-03-25T11:20:41;6.60;;;1.17;;
52866;SDS011;38739;53.324;6.862;2024-03-25T11:23:08;6.53;;;1.40;;
52866;SDS011;38739;53.324;6.862;2024-03-25T11:25:40;7.43;;;1.25;;
52866;SDS011;38739;53.324;6.862;2024-03-25T11:28:07;8.07;;;1.30;;
52866;SDS011;38739;53.324;6.862;2024-03-25T11:30:34;4.45;;;1.10;;
52866;SDS011;38739;53.324;6.862;2024-03-25T11:33:02;7.97;;;1.20;;
52866;SDS011;38739;53.324;6.862;2024-03-25T11:35:29;10.10;;;1.48;;
52866;SDS011;38739;53.324;6.862;2024-03-25T11:38:01;5.57;;;1.02;;
52866;SDS011;38739;53.324;6.862;2024-03-25T11:40:27;10.55;;;1.60;;
52866;SDS011;38739;53.324;6.862;2024-03-25T11:42:53;7.10;;;1.30;;
52866;SDS011;38739;53.324;6.862;2024-03-25T11:45:22;7.15;;;1.30;;
52866;SDS011;38739;53.324;6.862;2024-03-25T11:47:49;9.40;;;1.40;;
52866;SDS011;38739;53.324;6.862;2024-03-25T11:50:16;6.10;;;1.33;;
52866;SDS011;38739;53.324;6.862;2024-03-25T11:52:43;5.32;;;1.35;;
52866;SDS011;38739;53.324;6.862;2024-03-25T11:55:09;7.63;;;1.40;;
52866;SDS011;38739;53.324;6.862;2024-03-25T11:57:36;7.97;;;1.38;;
52866;SDS011;38739;53.324;6.862;2024-03-25T12:00:03;7.75;;;1.38;;
52866;SDS011;38739;53.324;6.862;2024-03-25T12:02:30;6.53;;;1.25;;
52866;SDS011;38739;53.324;6.862;2024-03-25T12:04:57;7.95;;;1.27;;
52866;SDS011;38739;53.324;6.862;2024-03-25T12:07:22;9.23;;;1.70;;
52866;SDS011;38739;53.324;6.862;2024-03-25T12:09:48;7.40;;;1.38;;
52866;SDS011;38739;53.324;6.862;2024-03-25T12:12:32;6.60;;;1.55;;
52866;SDS011;38739;53.324;6.862;2024-03-25T12:15:00;7.50;;;1.50;;
52866;SDS011;38739;53.324;6.862;2024-03-25T12:17:28;10.05;;;1.63;;
52866;SDS011;38739;53.324;6.862;2024-03-25T12:20:04;10.32;;;1.80;;
52866;SDS011;38739;53.324;6.862;2024-03-25T12:22:33;8.65;;;1.75;;
52866;SDS011;38739;53.324;6.862;2024-03-25T12:25:00;7.97;;;1.27;;
52866;SDS011;38739;53.324;6.862;2024-03-25T12:27:28;7.65;;;1.23;;
52866;SDS011;38739;53.324;6.862;2024-03-25T12:30:00;7.30;;;1.30;;
52866;SDS011;38739;53.324;6.862;2024-03-25T12:32:46;6.78;;;1.45;;
52866;SDS011;38739;53.324;6.862;2024-03-25T12:35:12;7.00;;;1.50;;
52866;SDS011;38739;53.324;6.862;2024-03-25T12:37:42;8.63;;;1.50;;
52866;SDS011;38739;53.324;6.862;2024-03-25T12:40:10;8.30;;;1.52;;
52866;SDS011;38739;53.324;6.862;2024-03-25T12:42:36;8.82;;;1.48;;
52866;SDS011;38739;53.324;6.862;2024-03-25T12:45:04;5.63;;;1.13;;
52866;SDS011;38739;53.324;6.862;2024-03-25T12:47:31;7.63;;;1.52;;
52866;SDS011;38739;53.324;6.862;2024-03-25T12:49:57;9.88;;;1.88;;
52866;SDS011;38739;53.324;6.862;2024-03-25T12:52:23;4.95;;;1.20;;
52866;SDS011;38739;53.324;6.862;2024-03-25T12:54:48;7.55;;;1.85;;
52866;SDS011;38739;53.324;6.862;2024-03-25T12:57:14;7.28;;;1.50;;
52866;SDS011;38739;53.324;6.862;2024-03-25T12:59:40;6.95;;;1.58;;
52866;SDS011;38739;53.324;6.862;2024-03-25T13:02:07;4.47;;;1.10;;
52866;SDS011;38739;53.324;6.862;2024-03-25T13:04:35;4.68;;;1.33;;
52866;SDS011;38739;53.324;6.862;2024-03-25T13:07:06;6.20;;;1.35;;
52866;SDS011;38739;53.324;6.862;2024-03-25T13:09:32;7.28;;;1.38;;
52866;SDS011;38739;53.324;6.862;2024-03-25T13:11:57;7.80;;;1.40;;
52866;SDS011;38739;53.324;6.862;2024-03-25T13:14:24;5.90;;;1.63;;
52866;SDS011;38739;53.324;6.862;2024-03-25T13:16:50;8.63;;;1.73;;
52866;SDS011;38739;53.324;6.862;2024-03-25T13:19:16;6.97;;;1.80;;
52866;SDS011;38739;53.324;6.862;2024-03-25T13:21:42;8.57;;;1.77;;
52866;SDS011;38739;53.324;6.862;2024-03-25T13:24:08;5.63;;;1.40;;
52866;SDS011;38739;53.324;6.862;2024-03-25T13:26:33;6.72;;;1.35;;
52866;SDS011;38739;53.324;6.862;2024-03-25T13:28:59;8.70;;;1.77;;
52866;SDS011;38739;53.324;6.862;2024-03-25T13:31:25;6.03;;;1.25;;
52866;SDS011;38739;53.324;6.862;2024-03-25T13:33:51;6.55;;;1.55;;
52866;SDS011;38739;53.324;6.862;2024-03-25T13:36:17;7.38;;;1.63;;
52866;SDS011;38739;53.324;6.862;2024-03-25T13:38:43;8.38;;;1.70;;
52866;SDS011;38739;53.324;6.862;2024-03-25T13:41:17;6.28;;;1.38;;
52866;SDS011;38739;53.324;6.862;2024-03-25T13:43:47;7.22;;;1.30;;
52866;SDS011;38739;53.324;6.862;2024-03-25T13:46:12;6.80;;;1.45;;
52866;SDS011;38739;53.324;6.862;2024-03-25T13:48:38;6.55;;;1.38;;
52866;SDS011;38739;53.324;6.862;2024-03-25T13:51:04;6.35;;;1.40;;
52866;SDS011;38739;53.324;6.862;2024-03-25T13:53:30;5.10;;;1.13;;
52866;SDS011;38739;53.324;6.862;2024-03-25T13:55:55;8.05;;;1.13;;
52866;SDS011;38739;53.324;6.862;2024-03-25T13:58:21;12.05;;;1.92;;
52866;SDS011;38739;53.324;6.862;2024-03-25T14:00:46;6.70;;;1.20;;
52866;SDS011;38739;53.324;6.862;2024-03-25T14:03:12;7.72;;;1.27;;
52866;SDS011;38739;53.324;6.862;2024-03-25T14:05:38;6.53;;;1.30;;
52866;SDS011;38739;53.324;6.862;2024-03-25T14:08:04;8.98;;;1.15;;
52866;SDS011;38739;53.324;6.862;2024-03-25T14:10:30;5.88;;;1.50;;
52866;SDS011;38739;53.324;6.862;2024-03-25T14:12:56;6.13;;;1.40;;
52866;SDS011;38739;53.324;6.862;2024-03-25T14:15:21;9.45;;;1.52;;
52866;SDS011;38739;53.324;6.862;2024-03-25T14:17:47;8.20;;;1.65;;
52866;SDS011;38739;53.324;6.862;2024-03-25T14:20:12;8.25;;;1.67;;
52866;SDS011;38739;53.324;6.862;2024-03-25T14:22:38;5.78;;;1.20;;
52866;SDS011;38739;53.324;6.862;2024-03-25T14:25:04;7.55;;;1.40;;
52866;SDS011;38739;53.324;6.862;2024-03-25T14:27:30;10.63;;;1.65;;
52866;SDS011;38739;53.324;6.862;2024-03-25T14:29:55;8.73;;;1.73;;
52866;SDS011;38739;53.324;6.862;2024-03-25T14:32:22;8.27;;;1.50;;
52866;SDS011;38739;53.324;6.862;2024-03-25T14:34:49;9.27;;;1.10;;
52866;SDS011;38739;53.324;6.862;2024-03-25T14:37:15;9.88;;;1.55;;
52866;SDS011;38739;53.324;6.862;2024-03-25T14:39:40;9.63;;;1.63;;